Latest Weather Observations for Coen Airport

IDQ60801

Issued at 10:02 am EST Friday 19 December 2014 (issued every 30 minutes, with the page automatically refreshed every 10 minutes)

About weather observations | Map of weather stations | Latest weather observations for QLD | Other Formats
Station Details ID: 027073 Name: COEN AIRPORT Lat: -13.76 Lon: 143.12 Height: 159.3 m
Data from the previous 72 hours. | See also: Recent months at Coen Airport
Date/Time
EST
Temp
°C
App
Temp
°C
Dew
Point
Rel
Hum
%
Delta-T
°C
Wind Press
QNH
hPa
Press
MSL
hPa
Rain
since 9 am
mm
Dir
 
Spd
km/h
Gust
km/h
Spd
kts
Gust
kts
19/10:00am 32.6 34.1 20.5 49 8.1 NE 13 20 7 11 1012.1 - 0.0
19/09:30am 31.2 32.5 20.8 54 7.0 NE 15 20 8 11 1012.2 - 0.0
19/09:00am 30.7 32.2 21.2 57 6.4 ENE 15 24 8 13 1012.2 1011.1 0.0
19/08:30am 29.7 30.6 20.8 58 5.9 NE 17 24 9 13 1012.2 - 0.0
19/08:00am 28.7 29.1 20.7 62 5.3 NNE 19 28 10 15 1012.3 - 0.0
19/07:30am 27.4 28.6 20.7 67 4.4 NE 15 20 8 11 1012.0 - 0.0
19/07:00am 26.5 27.5 21.0 72 3.7 NNE 17 24 9 13 1011.4 - 0.0
19/06:30am 25.2 26.5 20.9 77 2.8 NNE 15 19 8 10 1011.0 - 0.0
19/06:00am 24.7 27.5 20.8 79 2.6 NNE 7 13 4 7 1011.0 1009.6 0.0
19/05:30am 25.0 27.0 20.7 77 2.8 N 11 15 6 8 1010.6 - 0.0
19/05:00am 25.6 27.6 20.8 75 3.2 N 11 15 6 8 1010.5 - 0.0
19/04:30am 25.5 27.6 21.0 76 3.0 NNE 11 15 6 8 1010.4 - 0.0
19/04:00am 25.4 27.2 21.1 77 2.9 NNE 13 17 7 9 1010.3 - 0.0
19/03:30am 25.3 28.0 21.4 79 2.6 N 9 13 5 7 1010.4 - 0.0
19/03:00am 25.1 28.5 21.6 81 2.3 N 6 9 3 5 1010.6 1009.4 0.0
19/02:30am 25.0 29.7 21.9 83 2.1 CALM 0 2 0 1 1011.0 - 0.0
19/02:00am 25.1 28.8 22.2 84 2.0 NNE 6 9 3 5 1011.0 - 0.0
19/01:30am 24.9 29.4 22.2 85 1.8 NNE 2 7 1 4 1011.0 - 0.0
19/01:00am 24.0 28.5 21.5 86 1.7 CALM 0 6 0 3 1011.0 - 0.0
19/12:30am 24.5 29.0 21.6 84 1.9 CALM 0 0 0 0 1011.3 - 0.0
19/12:00am 25.2 29.8 21.7 81 2.3 CALM 0 0 0 0 1011.6 1010.5 0.0
 
Date/Time
EST
Temp
°C
App
Temp
°C
Dew
Point
Rel
Hum
%
Delta-T
°C
Wind Press
QNH
hPa
Press
MSL
hPa
Rain
since 9 am
mm
Dir
 
Spd
km/h
Gust
km/h
Spd
kts
Gust
kts
18/11:30pm 25.4 29.5 21.5 79 2.6 NE 2 6 1 3 1011.4 - 0.0
18/11:00pm 26.0 29.2 21.7 77 2.9 N 7 11 4 6 1011.7 - 0.0
18/10:30pm 26.3 29.2 21.7 76 3.1 N 9 13 5 7 1011.7 - 0.0
18/10:00pm 26.3 29.3 21.9 77 3.0 N 9 11 5 6 1011.2 - 0.0
18/09:30pm 26.2 28.2 21.6 76 3.1 NNE 13 17 7 9 1010.2 - 0.0
18/09:00pm 26.5 28.2 21.7 75 3.2 NE 15 22 8 12 1009.9 1008.8 0.0
18/08:30pm 26.8 28.2 21.8 74 3.4 NNE 17 24 9 13 1009.6 - 0.0
18/08:00pm 27.3 28.3 21.8 72 3.7 NE 19 30 10 16 1009.3 - 0.0
18/07:30pm 27.8 28.5 21.6 69 4.2 NNE 20 30 11 16 1009.2 - 0.0
18/07:00pm 28.6 29.5 21.6 66 4.7 NE 19 32 10 17 1008.7 - 0.0
18/06:30pm 29.5 30.3 21.7 63 5.3 NE 20 30 11 16 1008.1 - 0.0
18/06:00pm 30.5 30.8 21.6 59 6.0 NE 22 33 12 18 1007.9 1006.8 0.0
18/05:30pm 31.8 32.7 21.9 55 6.7 NE 20 30 11 16 1007.9 - 0.0
18/05:00pm 32.7 33.8 21.9 53 7.4 NE 19 30 10 16 1007.9 - 0.0
18/04:30pm 33.2 34.1 22.0 51 7.7 NE 20 26 11 14 1007.8 - 0.0
18/04:00pm 33.6 34.9 22.4 52 7.7 NE 19 30 10 16 1007.7 - 0.0
18/03:30pm 33.8 34.7 21.9 49 8.2 NE 20 32 11 17 1007.7 - 0.0
18/03:00pm 34.4 35.0 22.1 48 8.5 NE 22 33 12 18 1007.9 1006.8 0.0
18/02:30pm 35.4 36.3 22.0 45 9.2 NE 20 32 11 17 1008.3 - 0.0
18/02:00pm 35.9 37.3 22.5 46 9.3 E 19 28 10 15 1008.4 - 0.0
18/01:30pm 35.1 36.8 21.7 45 9.2 NNE 15 24 8 13 1008.7 - 0.0
18/01:00pm 34.5 37.5 20.8 44 9.3 NNW 6 11 3 6 1009.0 - 0.0
18/12:30pm 34.3 36.2 20.6 44 9.2 NW 11 19 6 10 1009.5 - 0.0
18/12:00pm 35.3 37.7 22.3 47 9.0 W 13 17 7 9 1010.0 1008.8 0.0
18/11:30am 34.6 36.5 19.8 41 9.9 ESE 9 17 5 9 1010.5 - 0.0
18/11:00am 33.4 35.6 21.2 48 8.3 N 11 17 6 9 1011.0 - 0.0
18/10:30am 32.4 35.9 21.9 54 7.2 NW 6 15 3 8 1011.2 - 0.0
18/10:00am 32.4 35.5 22.2 55 7.0 N 9 17 5 9 1011.5 - 0.0
18/09:30am 31.6 35.3 22.6 59 6.2 ENE 7 11 4 6 1011.7 - 0.0
18/09:00am 30.9 34.0 22.2 59 5.9 NE 9 15 5 8 1011.9 1010.8 0.0
18/08:30am 29.0 33.6 23.2 71 4.0 NE 4 9 2 5 1012.0 - 0.0
18/08:00am 28.6 32.9 23.3 73 3.7 ESE 6 9 3 5 1011.9 - 0.0
18/07:30am 27.3 32.5 24.2 83 2.2 SE 4 7 2 4 1011.9 - 0.0
18/07:00am 25.6 31.0 23.8 90 1.2 SSE 2 6 1 3 1011.5 - 0.0
18/06:30am 25.1 30.5 23.9 93 0.8 S 2 7 1 4 1011.1 - 0.0
18/06:00am 24.7 29.5 23.5 93 0.8 S 4 6 2 3 1010.7 1009.5 0.0
18/05:30am 24.6 29.7 23.4 93 0.8 SE 2 7 1 4 1010.6 - 0.0
18/05:00am 24.8 30.2 23.2 91 1.1 CALM 0 0 0 0 1010.2 - 0.0
18/04:30am 25.0 30.5 23.4 91 1.1 CALM 0 0 0 0 1010.0 - 0.0
18/04:00am 25.2 30.9 23.8 92 1.0 CALM 0 4 0 2 1009.7 - 0.0
18/03:30am 25.1 30.8 23.7 92 1.0 CALM 0 7 0 4 1009.4 - 0.0
18/03:00am 25.2 30.8 23.6 91 1.1 CALM 0 0 0 0 1009.1 1008.1 0.0
18/02:30am 25.5 31.2 23.7 90 1.2 CALM 0 0 0 0 1009.2 - 0.0
18/02:00am 25.2 30.6 23.3 89 1.3 CALM 0 0 0 0 1009.4 - 0.0
18/01:30am 25.7 31.4 23.7 89 1.4 CALM 0 0 0 0 1009.7 - 0.0
18/01:00am 25.7 31.3 23.6 88 1.4 CALM 0 6 0 3 1009.8 - 0.0
18/12:30am 26.0 31.6 23.5 86 1.7 CALM 0 6 0 3 1010.0 - 0.0
18/12:00am 26.2 30.7 23.7 86 1.7 ENE 6 9 3 5 1010.0 1008.9 0.0
 
Date/Time
EST
Temp
°C
App
Temp
°C
Dew
Point
Rel
Hum
%
Delta-T
°C
Wind Press
QNH
hPa
Press
MSL
hPa
Rain
since 9 am
mm
Dir
 
Spd
km/h
Gust
km/h
Spd
kts
Gust
kts
17/11:30pm 26.5 30.8 23.6 84 2.0 NE 7 11 4 6 1010.0 - 0.0
17/11:00pm 26.8 30.8 23.7 83 2.1 NE 9 15 5 8 1009.9 - 0.0
17/10:30pm 26.8 30.8 23.7 83 2.1 NNE 9 13 5 7 1009.7 - 0.0
17/10:00pm 27.0 31.0 23.7 82 2.3 NE 9 15 5 8 1009.2 - 0.0
17/09:30pm 27.1 31.4 23.6 81 2.4 NE 7 13 4 7 1009.5 - 0.0
17/09:00pm 27.4 30.8 23.4 79 2.8 NNE 11 15 6 8 1009.2 1008.1 0.0
17/08:30pm 27.8 30.8 23.4 77 3.0 NNE 13 17 7 9 1008.9 - 0.0
17/08:00pm 28.2 31.1 23.1 74 3.5 NNE 13 17 7 9 1008.7 - 0.0
17/07:30pm 28.7 31.7 23.4 73 3.7 NNE 13 17 7 9 1008.5 - 0.0
17/07:00pm 29.2 31.8 22.7 68 4.4 NE 13 22 7 12 1007.9 - 0.0
17/06:30pm 29.8 32.1 22.8 66 4.8 NE 15 20 8 11 1007.3 - 0.0
17/06:00pm 30.4 33.1 22.8 64 5.2 NE 13 30 7 16 1007.2 1006.0 0.0
17/05:30pm 31.5 33.3 22.5 59 6.2 NE 17 26 9 14 1006.1 - 0.0
17/05:00pm 33.5 33.1 22.3 52 7.7 NNE 28 37 15 20 1005.9 - 0.0
17/04:30pm 34.5 34.4 22.9 51 8.1 NNE 28 32 15 17 1005.4 - 0.0
17/04:00pm 34.2 35.6 22.9 51 7.8 NNE 20 30 11 16 1005.7 - 0.0
17/03:30pm 35.6 36.4 22.5 46 9.1 NNE 22 28 12 15 1005.5 - 0.0
17/03:00pm 33.6 35.3 21.7 49 8.1 ENE 15 22 8 12 1006.1 1004.9 0.0
17/02:30pm 36.8 38.6 23.3 46 9.5 ENE 19 28 10 15 1006.3 - 0.0
17/02:00pm 37.4 38.5 21.9 40 10.7 NE 19 32 10 17 1007.1 - 0.0
17/01:30pm 36.5 37.9 21.1 40 10.5 NNE 15 24 8 13 1007.6 - 0.0
17/01:00pm 33.7 34.4 21.5 49 8.3 NNE 20 26 11 14 1008.1 - 0.0
17/12:30pm 35.4 38.2 20.5 41 10.1 WNW 6 11 3 6 1008.5 - 0.0
17/12:00pm 34.3 36.6 21.4 47 8.8 W 11 24 6 13 1008.8 1007.7 0.0
17/11:30am 33.6 36.1 21.1 48 8.5 S 9 17 5 9 1009.2 - 0.0
17/11:00am 34.6 36.9 21.3 46 9.1 ENE 11 17 6 9 1009.5 - 0.0
17/10:30am 33.2 35.5 21.4 50 8.0 ENE 11 19 6 10 1009.8 - 0.0
17/10:00am 31.3 33.8 21.8 57 6.5 NNE 11 19 6 10 1010.1 - 0.0
17/09:30am 31.5 34.6 22.2 57 6.4 NE 9 15 5 8 1010.2 - 0.0
17/09:00am 30.8 33.4 22.7 62 5.6 NE 13 20 7 11 1010.2 1009.0 0.0
17/08:30am 30.0 32.7 22.9 65 4.9 ENE 13 20 7 11 1010.2 - 0.0
17/08:00am 29.0 32.2 23.0 70 4.1 NE 11 17 6 9 1010.1 - 0.0
17/07:30am 28.0 32.1 24.0 79 2.8 NE 9 15 5 8 1009.9 - 0.0
17/07:00am 26.2 30.6 23.5 85 1.9 ESE 6 7 3 4 1009.8 - 0.0
17/06:30am 24.6 28.8 23.4 93 0.8 SE 7 9 4 5 1009.4 - 0.0
17/06:00am 24.0 29.3 23.0 94 0.7 CALM 0 6 0 3 1008.7 1007.8 0.0
17/05:30am 24.2 29.5 23.0 93 0.8 CALM 0 0 0 0 1008.2 - 0.0
17/05:00am 24.5 29.9 23.3 93 0.8 CALM 0 0 0 0 1007.9 - 0.0
17/04:30am 25.0 30.6 23.6 92 1.0 CALM 0 4 0 2 1007.9 - 0.0
17/04:00am 24.9 29.6 23.9 94 0.7 SSE 6 7 3 4 1008.0 - 0.0
17/03:30am 24.9 30.6 23.7 93 0.8 CALM 0 0 0 0 1007.8 - 0.0
17/03:00am 25.0 30.6 23.6 92 1.0 CALM 0 0 0 0 1007.9 1006.8 0.0
17/02:30am 25.3 31.0 23.7 91 1.1 CALM 0 0 0 0 1007.9 - 0.0
17/02:00am 25.6 30.3 24.0 91 1.1 ESE 6 7 3 4 1008.2 - 0.0
17/01:30am 25.4 31.0 23.6 90 1.2 CALM 0 0 0 0 1008.4 - 0.0
17/01:00am 25.4 29.9 23.6 90 1.2 N 6 7 3 4 1008.5 - 0.0
17/12:30am 25.8 31.5 23.7 88 1.4 CALM 0 0 0 0 1009.0 - 0.0
17/12:00am 26.4 32.2 23.9 86 1.7 CALM 0 0 0 0 1009.4 1008.3 0.0
 
Date/Time
EST
Temp
°C
App
Temp
°C
Dew
Point
Rel
Hum
%
Delta-T
°C
Wind Press
QNH
hPa
Press
MSL
hPa
Rain
since 9 am
mm
Dir
 
Spd
km/h
Gust
km/h
Spd
kts
Gust
kts
16/11:30pm 26.3 31.9 23.6 85 1.9 CALM 0 0 0 0 1009.4 - 0.0
16/11:00pm 26.6 32.4 23.9 85 1.9 CALM 0 0 0 0 1009.6 - 0.0
16/10:30pm 26.4 30.9 23.7 85 1.9 NNE 6 9 3 5 1009.7 - 0.0
16/10:00pm 26.5 30.8 23.6 84 2.0 N 7 11 4 6 1009.3 - 0.0
16/09:30pm 26.8 30.5 23.3 81 2.4 NNE 9 13 5 7 1009.2 - 0.0
16/09:00pm 27.0 30.6 23.0 79 2.7 NE 9 13 5 7 1009.1 1008.0 0.0
16/08:30pm 27.4 30.2 23.0 77 3.0 NNE 13 17 7 9 1008.9 - 0.0
16/08:00pm 27.8 30.6 23.0 75 3.3 NNE 13 20 7 11 1008.5 - 0.0
16/07:30pm 28.2 30.6 22.9 73 3.6 NE 15 24 8 13 1008.4 - 0.0
16/07:00pm 28.7 31.0 22.7 70 4.1 NE 15 26 8 14 1008.0 - 0.0
16/06:30pm 29.3 31.0 22.3 66 4.8 NE 17 24 9 13 1007.2 - 0.0
16/06:00pm 29.8 31.8 23.0 67 4.7 NE 17 28 9 15 1006.8 1005.8 0.0
16/05:30pm 30.8 32.1 22.4 61 5.8 NNE 19 30 10 16 1006.9 - 0.0
16/05:00pm 31.4 33.7 22.7 60 6.0 ENE 15 24 8 13 1006.6 - 0.0
16/04:30pm 31.7 34.1 23.0 60 6.0 NE 15 22 8 12 1006.2 - 0.0
16/04:00pm 31.7 33.4 22.4 58 6.4 NE 17 22 9 12 1006.4 - 0.0
16/03:30pm 31.7 34.3 22.7 59 6.2 SSE 13 19 7 10 1006.6 - 0.0
16/03:00pm 30.3 31.3 22.2 62 5.5 SE 20 28 11 15 1006.9 1005.8 0.0
16/02:30pm 31.6 34.0 22.3 57 6.4 SSE 13 20 7 11 1007.1 - 0.0
16/02:00pm 33.8 35.6 21.2 47 8.6 NE 13 19 7 10 1007.2 - 0.0
16/01:30pm 35.3 36.2 20.0 40 10.3 N 15 28 8 15 1007.4 - 0.0
16/01:00pm 37.7 38.5 19.1 33 12.4 NE 13 24 7 13 1007.7 - 0.0
16/12:30pm 36.5 37.5 18.6 35 11.8 E 11 17 6 9 1008.2 - 0.0
16/12:00pm 36.8 39.1 20.6 39 11.0 N 9 19 5 10 1008.8 1007.6 0.0
16/11:30am 35.5 36.8 19.4 38 10.7 NE 11 20 6 11 1009.4 - 0.0
16/11:00am 35.3 37.3 20.0 40 10.3 ENE 9 19 5 10 1009.7 - 0.0
16/10:30am 33.3 36.2 21.1 48 8.3 N 7 13 4 7 1010.2 - 0.0

Other Formats:

Comma delimited format used in spreadsheet applications
http://www.bom.gov.au/fwo/IDQ60801/IDQ60801.94183.axf

JavaScript Object Notation format (JSON) in row-major order
http://www.bom.gov.au/fwo/IDQ60801/IDQ60801.94183.json